sensor_id;sensor_type;location;lat;lon;timestamp;pressure;altitude;pressure_sealevel;temperature;humidity
74334;BME280;62753;40.394;-80.022;2023-05-17T00:00:01;96318.71;;;24.00;35.77
74334;BME280;62753;40.394;-80.022;2023-05-17T00:02:26;96317.33;;;23.89;36.15
74334;BME280;62753;40.394;-80.022;2023-05-17T00:04:52;96314.90;;;23.17;37.11
74334;BME280;62753;40.394;-80.022;2023-05-17T00:07:17;96309.63;;;23.00;37.48
74334;BME280;62753;40.394;-80.022;2023-05-17T00:09:42;96303.51;;;24.22;36.54
74334;BME280;62753;40.394;-80.022;2023-05-17T00:12:08;96299.28;;;23.89;36.42
74334;BME280;62753;40.394;-80.022;2023-05-17T00:14:33;96304.82;;;23.22;37.42
74334;BME280;62753;40.394;-80.022;2023-05-17T00:16:58;96308.17;;;23.62;37.24
74334;BME280;62753;40.394;-80.022;2023-05-17T00:19:24;96312.21;;;23.70;37.24
74334;BME280;62753;40.394;-80.022;2023-05-17T00:21:49;96313.17;;;23.57;37.11
74334;BME280;62753;40.394;-80.022;2023-05-17T00:24:14;96308.42;;;24.37;35.84
74334;BME280;62753;40.394;-80.022;2023-05-17T00:26:39;96312.00;;;23.59;37.09
74334;BME280;62753;40.394;-80.022;2023-05-17T00:29:05;96314.65;;;23.43;36.96
74334;BME280;62753;40.394;-80.022;2023-05-17T00:31:30;96309.05;;;23.51;36.72
74334;BME280;62753;40.394;-80.022;2023-05-17T00:33:54;96312.96;;;23.35;37.18
74334;BME280;62753;40.394;-80.022;2023-05-17T00:36:20;96314.34;;;23.50;37.06
74334;BME280;62753;40.394;-80.022;2023-05-17T00:38:46;96319.58;;;23.21;37.64
74334;BME280;62753;40.394;-80.022;2023-05-17T00:41:11;96317.43;;;22.71;39.00
74334;BME280;62753;40.394;-80.022;2023-05-17T00:43:37;96317.23;;;22.76;39.23
74334;BME280;62753;40.394;-80.022;2023-05-17T00:46:02;96315.19;;;23.01;39.02
74334;BME280;62753;40.394;-80.022;2023-05-17T00:48:28;96316.14;;;23.12;38.77
74334;BME280;62753;40.394;-80.022;2023-05-17T00:50:53;96317.85;;;23.08;38.47
74334;BME280;62753;40.394;-80.022;2023-05-17T00:53:18;96314.89;;;23.25;38.33
74334;BME280;62753;40.394;-80.022;2023-05-17T00:55:44;96313.06;;;22.27;39.45
74334;BME280;62753;40.394;-80.022;2023-05-17T00:58:08;96317.05;;;23.20;38.34
74334;BME280;62753;40.394;-80.022;2023-05-17T01:00:33;96318.97;;;21.95;41.06
74334;BME280;62753;40.394;-80.022;2023-05-17T01:03:00;96320.99;;;22.15;40.98
74334;BME280;62753;40.394;-80.022;2023-05-17T01:05:24;96323.32;;;22.52;40.27
74334;BME280;62753;40.394;-80.022;2023-05-17T01:07:50;96323.46;;;22.06;39.86
74334;BME280;62753;40.394;-80.022;2023-05-17T01:10:15;96328.10;;;22.76;39.78
74334;BME280;62753;40.394;-80.022;2023-05-17T01:12:59;96326.37;;;22.58;40.32
74334;BME280;62753;40.394;-80.022;2023-05-17T01:15:12;96327.20;;;22.16;40.46
74334;BME280;62753;40.394;-80.022;2023-05-17T01:17:38;96327.66;;;22.60;39.95
74334;BME280;62753;40.394;-80.022;2023-05-17T01:20:04;96327.44;;;21.83;41.70
74334;BME280;62753;40.394;-80.022;2023-05-17T01:22:33;96329.77;;;21.79;41.45
74334;BME280;62753;40.394;-80.022;2023-05-17T01:24:57;96329.31;;;22.35;40.26
74334;BME280;62753;40.394;-80.022;2023-05-17T01:27:14;96331.69;;;22.79;40.06
74334;BME280;62753;40.394;-80.022;2023-05-17T01:29:40;96330.29;;;22.75;40.55
74334;BME280;62753;40.394;-80.022;2023-05-17T01:32:05;96330.34;;;21.59;41.89
74334;BME280;62753;40.394;-80.022;2023-05-17T01:34:30;96335.42;;;21.64;42.14
74334;BME280;62753;40.394;-80.022;2023-05-17T01:36:55;96337.84;;;21.76;41.76
74334;BME280;62753;40.394;-80.022;2023-05-17T01:39:21;96334.72;;;21.74;42.13
74334;BME280;62753;40.394;-80.022;2023-05-17T01:41:54;96338.07;;;21.56;43.05
74334;BME280;62753;40.394;-80.022;2023-05-17T01:44:17;96342.18;;;21.60;43.43
74334;BME280;62753;40.394;-80.022;2023-05-17T01:46:40;96342.89;;;21.50;42.81
74334;BME280;62753;40.394;-80.022;2023-05-17T01:49:07;96345.77;;;21.91;41.79
74334;BME280;62753;40.394;-80.022;2023-05-17T01:51:32;96345.68;;;22.09;41.55
74334;BME280;62753;40.394;-80.022;2023-05-17T01:53:56;96340.11;;;21.76;41.82
74334;BME280;62753;40.394;-80.022;2023-05-17T01:56:24;96346.24;;;21.85;42.63
74334;BME280;62753;40.394;-80.022;2023-05-17T01:58:46;96345.41;;;21.93;42.69
74334;BME280;62753;40.394;-80.022;2023-05-17T02:01:10;96349.41;;;22.01;41.68
74334;BME280;62753;40.394;-80.022;2023-05-17T02:03:34;96350.18;;;21.99;41.27
74334;BME280;62753;40.394;-80.022;2023-05-17T02:06:00;96352.54;;;21.56;42.61
74334;BME280;62753;40.394;-80.022;2023-05-17T02:08:26;96351.05;;;22.47;41.24
74334;BME280;62753;40.394;-80.022;2023-05-17T02:10:51;96346.36;;;22.25;41.63
74334;BME280;62753;40.394;-80.022;2023-05-17T02:13:16;96350.60;;;21.97;41.22
74334;BME280;62753;40.394;-80.022;2023-05-17T02:15:42;96346.69;;;21.29;43.72
74334;BME280;62753;40.394;-80.022;2023-05-17T02:18:08;96349.39;;;21.21;43.22
74334;BME280;62753;40.394;-80.022;2023-05-17T02:20:33;96350.33;;;21.55;42.89
74334;BME280;62753;40.394;-80.022;2023-05-17T02:22:59;96352.83;;;22.16;41.57
74334;BME280;62753;40.394;-80.022;2023-05-17T02:25:24;96355.76;;;22.01;41.22
74334;BME280;62753;40.394;-80.022;2023-05-17T02:27:49;96358.86;;;22.46;41.14
74334;BME280;62753;40.394;-80.022;2023-05-17T02:30:15;96357.60;;;21.46;42.35
74334;BME280;62753;40.394;-80.022;2023-05-17T02:32:40;96358.08;;;21.96;41.29
74334;BME280;62753;40.394;-80.022;2023-05-17T02:35:07;96360.36;;;22.56;40.73
74334;BME280;62753;40.394;-80.022;2023-05-17T02:37:32;96362.25;;;22.29;40.95
74334;BME280;62753;40.394;-80.022;2023-05-17T02:39:57;96361.07;;;21.51;42.74
74334;BME280;62753;40.394;-80.022;2023-05-17T02:42:23;96362.48;;;21.75;42.06
74334;BME280;62753;40.394;-80.022;2023-05-17T02:44:48;96361.75;;;21.86;42.50
74334;BME280;62753;40.394;-80.022;2023-05-17T02:47:14;96359.77;;;21.41;42.97
74334;BME280;62753;40.394;-80.022;2023-05-17T02:49:39;96355.64;;;21.22;42.63
74334;BME280;62753;40.394;-80.022;2023-05-17T02:52:05;96355.12;;;21.77;42.36
74334;BME280;62753;40.394;-80.022;2023-05-17T02:54:30;96354.62;;;21.93;41.50
74334;BME280;62753;40.394;-80.022;2023-05-17T02:56:55;96354.53;;;21.93;41.80
74334;BME280;62753;40.394;-80.022;2023-05-17T02:59:21;96358.75;;;21.38;42.61
74334;BME280;62753;40.394;-80.022;2023-05-17T03:01:47;96355.85;;;22.06;41.30
74334;BME280;62753;40.394;-80.022;2023-05-17T03:04:13;96355.11;;;22.00;41.07
74334;BME280;62753;40.394;-80.022;2023-05-17T03:06:38;96352.73;;;21.95;41.22
74334;BME280;62753;40.394;-80.022;2023-05-17T03:09:04;96350.76;;;22.47;40.32
74334;BME280;62753;40.394;-80.022;2023-05-17T03:11:28;96354.43;;;22.68;39.80
74334;BME280;62753;40.394;-80.022;2023-05-17T03:13:54;96349.46;;;22.36;40.87
74334;BME280;62753;40.394;-80.022;2023-05-17T03:16:19;96352.53;;;22.52;40.43
74334;BME280;62753;40.394;-80.022;2023-05-17T03:18:45;96351.97;;;22.02;40.73
74334;BME280;62753;40.394;-80.022;2023-05-17T03:21:11;96355.10;;;21.48;42.50
74334;BME280;62753;40.394;-80.022;2023-05-17T03:23:36;96351.71;;;20.98;43.68
74334;BME280;62753;40.394;-80.022;2023-05-17T03:26:01;96352.61;;;21.38;42.94
74334;BME280;62753;40.394;-80.022;2023-05-17T03:28:26;96358.58;;;21.23;42.97
74334;BME280;62753;40.394;-80.022;2023-05-17T03:30:52;96359.74;;;20.61;43.82
74334;BME280;62753;40.394;-80.022;2023-05-17T03:33:18;96362.14;;;21.01;43.64
74334;BME280;62753;40.394;-80.022;2023-05-17T03:35:43;96364.81;;;20.28;44.22
74334;BME280;62753;40.394;-80.022;2023-05-17T03:38:08;96368.15;;;19.94;46.22
74334;BME280;62753;40.394;-80.022;2023-05-17T03:40:33;96363.09;;;20.37;45.41
74334;BME280;62753;40.394;-80.022;2023-05-17T03:42:59;96361.87;;;20.02;46.39
74334;BME280;62753;40.394;-80.022;2023-05-17T03:45:26;96357.35;;;20.03;47.17
74334;BME280;62753;40.394;-80.022;2023-05-17T03:47:50;96354.47;;;19.56;47.16
74334;BME280;62753;40.394;-80.022;2023-05-17T03:50:15;96347.05;;;19.68;47.16
74334;BME280;62753;40.394;-80.022;2023-05-17T03:52:40;96345.57;;;19.81;47.74
74334;BME280;62753;40.394;-80.022;2023-05-17T03:55:07;96346.17;;;20.60;45.41
74334;BME280;62753;40.394;-80.022;2023-05-17T03:57:32;96347.35;;;20.85;44.54
74334;BME280;62753;40.394;-80.022;2023-05-17T03:59:58;96351.23;;;21.14;44.16
74334;BME280;62753;40.394;-80.022;2023-05-17T04:02:23;96352.95;;;21.14;43.70
74334;BME280;62753;40.394;-80.022;2023-05-17T04:04:49;96357.99;;;20.79;44.45
74334;BME280;62753;40.394;-80.022;2023-05-17T04:07:14;96357.55;;;20.68;44.69
74334;BME280;62753;40.394;-80.022;2023-05-17T04:09:39;96360.26;;;20.26;45.71
74334;BME280;62753;40.394;-80.022;2023-05-17T04:12:06;96354.19;;;20.73;45.47
74334;BME280;62753;40.394;-80.022;2023-05-17T04:14:31;96354.11;;;20.33;45.58
74334;BME280;62753;40.394;-80.022;2023-05-17T04:16:56;96350.93;;;20.75;44.68
74334;BME280;62753;40.394;-80.022;2023-05-17T04:19:21;96347.06;;;21.02;44.40
74334;BME280;62753;40.394;-80.022;2023-05-17T04:21:46;96350.97;;;20.77;44.28
74334;BME280;62753;40.394;-80.022;2023-05-17T04:24:12;96356.66;;;20.84;44.48
74334;BME280;62753;40.394;-80.022;2023-05-17T04:26:37;96356.20;;;20.31;45.19
74334;BME280;62753;40.394;-80.022;2023-05-17T04:29:03;96355.52;;;19.89;45.92
74334;BME280;62753;40.394;-80.022;2023-05-17T04:31:30;96353.64;;;20.17;46.05
74334;BME280;62753;40.394;-80.022;2023-05-17T04:33:54;96357.37;;;20.86;44.58
74334;BME280;62753;40.394;-80.022;2023-05-17T04:36:19;96360.23;;;20.42;45.80
74334;BME280;62753;40.394;-80.022;2023-05-17T04:38:45;96361.54;;;19.96;46.40
74334;BME280;62753;40.394;-80.022;2023-05-17T04:41:10;96366.20;;;20.17;46.66
74334;BME280;62753;40.394;-80.022;2023-05-17T04:43:36;96371.23;;;20.39;45.30
74334;BME280;62753;40.394;-80.022;2023-05-17T04:46:01;96378.29;;;20.26;45.85
74334;BME280;62753;40.394;-80.022;2023-05-17T04:48:30;96380.20;;;20.12;45.83
74334;BME280;62753;40.394;-80.022;2023-05-17T04:50:53;96385.58;;;20.38;45.37
74334;BME280;62753;40.394;-80.022;2023-05-17T04:53:18;96383.66;;;20.30;44.44
74334;BME280;62753;40.394;-80.022;2023-05-17T04:55:43;96381.62;;;20.46;44.17
74334;BME280;62753;40.394;-80.022;2023-05-17T04:58:08;96380.91;;;20.82;43.90
74334;BME280;62753;40.394;-80.022;2023-05-17T05:00:34;96377.75;;;20.69;43.88
74334;BME280;62753;40.394;-80.022;2023-05-17T05:02:59;96372.81;;;20.30;44.25
74334;BME280;62753;40.394;-80.022;2023-05-17T05:05:24;96378.50;;;21.08;43.31
74334;BME280;62753;40.394;-80.022;2023-05-17T05:07:49;96376.09;;;20.93;43.95
74334;BME280;62753;40.394;-80.022;2023-05-17T05:10:15;96364.61;;;20.24;44.24
74334;BME280;62753;40.394;-80.022;2023-05-17T05:12:41;96369.63;;;20.29;44.59
74334;BME280;62753;40.394;-80.022;2023-05-17T05:15:07;96372.80;;;20.17;45.29
74334;BME280;62753;40.394;-80.022;2023-05-17T05:17:32;96377.03;;;20.76;43.49
74334;BME280;62753;40.394;-80.022;2023-05-17T05:19:57;96367.85;;;20.88;43.27
74334;BME280;62753;40.394;-80.022;2023-05-17T05:22:23;96370.98;;;20.71;43.22
74334;BME280;62753;40.394;-80.022;2023-05-17T05:24:48;96367.56;;;20.03;44.24
74334;BME280;62753;40.394;-80.022;2023-05-17T05:27:13;96370.39;;;20.23;44.20
74334;BME280;62753;40.394;-80.022;2023-05-17T05:29:38;96368.11;;;19.79;44.77
74334;BME280;62753;40.394;-80.022;2023-05-17T05:32:04;96358.20;;;19.79;43.84
74334;BME280;62753;40.394;-80.022;2023-05-17T05:34:29;96365.05;;;19.46;45.88
74334;BME280;62753;40.394;-80.022;2023-05-17T05:36:54;96359.33;;;20.21;44.32
74334;BME280;62753;40.394;-80.022;2023-05-17T05:39:20;96364.67;;;20.11;43.53
74334;BME280;62753;40.394;-80.022;2023-05-17T05:41:45;96365.13;;;19.68;43.85
74334;BME280;62753;40.394;-80.022;2023-05-17T05:44:10;96362.16;;;20.31;42.92
74334;BME280;62753;40.394;-80.022;2023-05-17T05:46:35;96358.99;;;20.30;42.59
74334;BME280;62753;40.394;-80.022;2023-05-17T05:49:01;96357.39;;;20.54;41.39
74334;BME280;62753;40.394;-80.022;2023-05-17T05:51:26;96361.89;;;20.96;41.04
74334;BME280;62753;40.394;-80.022;2023-05-17T05:53:51;96357.83;;;20.94;40.45
74334;BME280;62753;40.394;-80.022;2023-05-17T05:56:16;96362.12;;;20.46;42.04
74334;BME280;62753;40.394;-80.022;2023-05-17T05:58:41;96357.23;;;20.80;41.10
74334;BME280;62753;40.394;-80.022;2023-05-17T06:01:07;96363.62;;;20.34;41.93
74334;BME280;62753;40.394;-80.022;2023-05-17T06:03:32;96367.03;;;19.95;42.51
74334;BME280;62753;40.394;-80.022;2023-05-17T06:05:57;96362.18;;;19.96;42.18
74334;BME280;62753;40.394;-80.022;2023-05-17T06:08:22;96364.91;;;20.25;41.47
74334;BME280;62753;40.394;-80.022;2023-05-17T06:10:48;96365.01;;;20.13;41.70
74334;BME280;62753;40.394;-80.022;2023-05-17T06:13:13;96373.20;;;20.39;41.70
74334;BME280;62753;40.394;-80.022;2023-05-17T06:15:39;96370.50;;;19.69;42.34
74334;BME280;62753;40.394;-80.022;2023-05-17T06:18:04;96374.78;;;19.73;42.77
74334;BME280;62753;40.394;-80.022;2023-05-17T06:20:28;96376.43;;;19.79;42.91
74334;BME280;62753;40.394;-80.022;2023-05-17T06:22:54;96379.43;;;19.59;42.58
74334;BME280;62753;40.394;-80.022;2023-05-17T06:25:19;96380.13;;;19.88;41.77
74334;BME280;62753;40.394;-80.022;2023-05-17T06:27:44;96381.94;;;19.65;42.30
74334;BME280;62753;40.394;-80.022;2023-05-17T06:30:10;96386.60;;;20.16;41.58
74334;BME280;62753;40.394;-80.022;2023-05-17T06:32:35;96387.66;;;20.21;41.67
74334;BME280;62753;40.394;-80.022;2023-05-17T06:35:00;96395.25;;;19.92;41.82
74334;BME280;62753;40.394;-80.022;2023-05-17T06:37:25;96397.41;;;19.80;41.97
74334;BME280;62753;40.394;-80.022;2023-05-17T06:39:51;96398.76;;;19.81;42.04
74334;BME280;62753;40.394;-80.022;2023-05-17T06:42:16;96399.29;;;20.09;41.74
74334;BME280;62753;40.394;-80.022;2023-05-17T06:44:41;96396.29;;;19.80;41.93
74334;BME280;62753;40.394;-80.022;2023-05-17T06:47:07;96399.17;;;20.31;41.56
74334;BME280;62753;40.394;-80.022;2023-05-17T06:49:32;96403.42;;;19.70;41.79
74334;BME280;62753;40.394;-80.022;2023-05-17T06:51:58;96402.09;;;19.81;41.65
74334;BME280;62753;40.394;-80.022;2023-05-17T06:54:23;96398.88;;;20.04;41.57
74334;BME280;62753;40.394;-80.022;2023-05-17T06:56:48;96400.26;;;20.17;41.49
74334;BME280;62753;40.394;-80.022;2023-05-17T06:59:13;96407.44;;;19.37;42.36
74334;BME280;62753;40.394;-80.022;2023-05-17T07:01:38;96406.19;;;19.82;42.16
74334;BME280;62753;40.394;-80.022;2023-05-17T07:04:04;96399.65;;;19.23;42.36
74334;BME280;62753;40.394;-80.022;2023-05-17T07:06:30;96401.20;;;20.15;40.90
74334;BME280;62753;40.394;-80.022;2023-05-17T07:08:55;96404.02;;;19.89;40.97
74334;BME280;62753;40.394;-80.022;2023-05-17T07:11:20;96405.32;;;20.02;40.71
74334;BME280;62753;40.394;-80.022;2023-05-17T07:13:46;96408.12;;;19.62;40.25
74334;BME280;62753;40.394;-80.022;2023-05-17T07:16:11;96410.87;;;20.17;39.30
74334;BME280;62753;40.394;-80.022;2023-05-17T07:18:37;96415.53;;;19.70;40.01
74334;BME280;62753;40.394;-80.022;2023-05-17T07:21:02;96417.59;;;19.29;40.73
74334;BME280;62753;40.394;-80.022;2023-05-17T07:23:27;96423.14;;;19.20;41.32
74334;BME280;62753;40.394;-80.022;2023-05-17T07:25:52;96424.14;;;19.28;41.29
74334;BME280;62753;40.394;-80.022;2023-05-17T07:28:18;96428.66;;;19.04;41.99
74334;BME280;62753;40.394;-80.022;2023-05-17T07:30:43;96428.55;;;19.10;42.00
74334;BME280;62753;40.394;-80.022;2023-05-17T07:33:08;96427.83;;;19.12;41.47
74334;BME280;62753;40.394;-80.022;2023-05-17T07:35:34;96430.23;;;18.92;41.96
74334;BME280;62753;40.394;-80.022;2023-05-17T07:37:59;96432.29;;;19.33;41.53
74334;BME280;62753;40.394;-80.022;2023-05-17T07:40:24;96429.83;;;19.51;40.24
74334;BME280;62753;40.394;-80.022;2023-05-17T07:42:50;96428.06;;;19.66;40.10
74334;BME280;62753;40.394;-80.022;2023-05-17T07:45:15;96433.68;;;19.97;38.91
74334;BME280;62753;40.394;-80.022;2023-05-17T07:47:40;96436.45;;;19.46;39.14
74334;BME280;62753;40.394;-80.022;2023-05-17T07:50:06;96439.98;;;19.79;38.93
74334;BME280;62753;40.394;-80.022;2023-05-17T07:52:34;96445.43;;;19.41;39.25
74334;BME280;62753;40.394;-80.022;2023-05-17T07:54:56;96444.09;;;19.42;39.79
74334;BME280;62753;40.394;-80.022;2023-05-17T07:57:22;96447.92;;;19.44;39.20
74334;BME280;62753;40.394;-80.022;2023-05-17T07:59:47;96446.90;;;18.84;39.46
74334;BME280;62753;40.394;-80.022;2023-05-17T08:02:12;96447.34;;;19.13;39.08
74334;BME280;62753;40.394;-80.022;2023-05-17T08:04:38;96452.42;;;19.55;38.54
74334;BME280;62753;40.394;-80.022;2023-05-17T08:07:04;96453.52;;;19.52;38.28
74334;BME280;62753;40.394;-80.022;2023-05-17T08:09:28;96457.15;;;19.65;37.87
74334;BME280;62753;40.394;-80.022;2023-05-17T08:11:54;96464.31;;;19.89;36.92
74334;BME280;62753;40.394;-80.022;2023-05-17T08:14:21;96470.71;;;19.73;36.64
74334;BME280;62753;40.394;-80.022;2023-05-17T08:16:45;96476.54;;;20.10;36.23
74334;BME280;62753;40.394;-80.022;2023-05-17T08:19:11;96477.55;;;20.09;36.40
74334;BME280;62753;40.394;-80.022;2023-05-17T08:21:35;96477.20;;;20.47;36.14
74334;BME280;62753;40.394;-80.022;2023-05-17T08:24:00;96480.42;;;20.29;36.07
74334;BME280;62753;40.394;-80.022;2023-05-17T08:26:26;96476.39;;;20.51;35.70
74334;BME280;62753;40.394;-80.022;2023-05-17T08:28:51;96477.60;;;20.43;35.11
74334;BME280;62753;40.394;-80.022;2023-05-17T08:31:16;96483.76;;;20.36;34.90
74334;BME280;62753;40.394;-80.022;2023-05-17T08:33:41;96488.01;;;20.50;34.47
74334;BME280;62753;40.394;-80.022;2023-05-17T08:36:07;96496.74;;;20.32;34.77
74334;BME280;62753;40.394;-80.022;2023-05-17T08:38:31;96499.48;;;19.83;34.64
74334;BME280;62753;40.394;-80.022;2023-05-17T08:40:57;96500.82;;;20.02;35.16
74334;BME280;62753;40.394;-80.022;2023-05-17T08:43:23;96503.05;;;19.74;35.25
74334;BME280;62753;40.394;-80.022;2023-05-17T08:45:48;96501.95;;;19.73;34.52
74334;BME280;62753;40.394;-80.022;2023-05-17T08:48:13;96501.70;;;19.81;34.20
74334;BME280;62753;40.394;-80.022;2023-05-17T08:50:39;96506.17;;;19.48;34.36
74334;BME280;62753;40.394;-80.022;2023-05-17T08:53:04;96510.71;;;19.56;35.06
74334;BME280;62753;40.394;-80.022;2023-05-17T08:55:31;96513.90;;;19.31;34.53
74334;BME280;62753;40.394;-80.022;2023-05-17T08:57:55;96519.93;;;19.20;34.87
74334;BME280;62753;40.394;-80.022;2023-05-17T09:00:21;96524.88;;;18.86;34.54
74334;BME280;62753;40.394;-80.022;2023-05-17T09:02:45;96524.01;;;19.16;34.44
74334;BME280;62753;40.394;-80.022;2023-05-17T09:05:12;96526.38;;;19.16;33.64
74334;BME280;62753;40.394;-80.022;2023-05-17T09:07:35;96528.44;;;18.99;34.21
74334;BME280;62753;40.394;-80.022;2023-05-17T09:10:00;96528.82;;;18.11;35.24
74334;BME280;62753;40.394;-80.022;2023-05-17T09:12:26;96532.67;;;18.16;35.10
74334;BME280;62753;40.394;-80.022;2023-05-17T09:14:51;96533.78;;;18.12;35.32
74334;BME280;62753;40.394;-80.022;2023-05-17T09:17:18;96540.33;;;17.95;35.76
74334;BME280;62753;40.394;-80.022;2023-05-17T09:19:43;96544.85;;;17.67;35.40
74334;BME280;62753;40.394;-80.022;2023-05-17T09:22:07;96550.57;;;18.00;35.54
74334;BME280;62753;40.394;-80.022;2023-05-17T09:24:32;96549.43;;;17.82;35.26
74334;BME280;62753;40.394;-80.022;2023-05-17T09:27:01;96552.02;;;17.94;35.28
74334;BME280;62753;40.394;-80.022;2023-05-17T09:29:22;96552.63;;;17.36;35.89
74334;BME280;62753;40.394;-80.022;2023-05-17T09:31:47;96555.89;;;18.00;35.49
74334;BME280;62753;40.394;-80.022;2023-05-17T09:34:17;96558.07;;;18.17;35.25
74334;BME280;62753;40.394;-80.022;2023-05-17T09:36:41;96558.52;;;18.52;34.79
74334;BME280;62753;40.394;-80.022;2023-05-17T09:39:04;96565.60;;;18.18;35.16
74334;BME280;62753;40.394;-80.022;2023-05-17T09:41:29;96568.10;;;17.41;35.36
74334;BME280;62753;40.394;-80.022;2023-05-17T09:43:57;96567.77;;;17.99;35.71
74334;BME280;62753;40.394;-80.022;2023-05-17T09:46:19;96568.41;;;17.26;36.21
74334;BME280;62753;40.394;-80.022;2023-05-17T09:48:45;96574.99;;;16.70;37.48
74334;BME280;62753;40.394;-80.022;2023-05-17T09:51:10;96574.62;;;16.75;38.07
74334;BME280;62753;40.394;-80.022;2023-05-17T09:53:36;96580.86;;;16.23;38.53
74334;BME280;62753;40.394;-80.022;2023-05-17T09:56:02;96583.32;;;16.53;38.55
74334;BME280;62753;40.394;-80.022;2023-05-17T09:58:27;96592.32;;;16.46;38.51
74334;BME280;62753;40.394;-80.022;2023-05-17T10:00:54;96596.35;;;15.75;39.83
74334;BME280;62753;40.394;-80.022;2023-05-17T10:03:17;96605.39;;;15.98;39.11
74334;BME280;62753;40.394;-80.022;2023-05-17T10:05:43;96613.10;;;16.34;38.98
74334;BME280;62753;40.394;-80.022;2023-05-17T10:08:09;96617.39;;;15.82;39.36
74334;BME280;62753;40.394;-80.022;2023-05-17T10:10:34;96625.69;;;15.49;39.98
74334;BME280;62753;40.394;-80.022;2023-05-17T10:13:00;96632.82;;;15.85;39.00
74334;BME280;62753;40.394;-80.022;2023-05-17T10:15:24;96633.58;;;16.18;39.01
74334;BME280;62753;40.394;-80.022;2023-05-17T10:17:49;96640.87;;;15.53;39.45
74334;BME280;62753;40.394;-80.022;2023-05-17T10:20:15;96646.76;;;15.90;39.57
74334;BME280;62753;40.394;-80.022;2023-05-17T10:22:41;96645.59;;;16.06;39.41
74334;BME280;62753;40.394;-80.022;2023-05-17T10:25:06;96650.00;;;15.37;40.34
74334;BME280;62753;40.394;-80.022;2023-05-17T10:27:30;96657.74;;;15.78;40.01
74334;BME280;62753;40.394;-80.022;2023-05-17T10:29:56;96665.95;;;15.80;39.80
74334;BME280;62753;40.394;-80.022;2023-05-17T10:32:22;96670.28;;;16.06;39.70
74334;BME280;62753;40.394;-80.022;2023-05-17T10:34:47;96676.61;;;16.21;38.29
74334;BME280;62753;40.394;-80.022;2023-05-17T10:37:13;96682.05;;;16.63;38.04
74334;BME280;62753;40.394;-80.022;2023-05-17T10:39:38;96685.62;;;16.67;38.30
74334;BME280;62753;40.394;-80.022;2023-05-17T10:42:06;96688.41;;;16.53;37.67
74334;BME280;62753;40.394;-80.022;2023-05-17T10:44:30;96695.17;;;16.62;37.61
74334;BME280;62753;40.394;-80.022;2023-05-17T10:46:54;96694.95;;;16.27;38.38
74334;BME280;62753;40.394;-80.022;2023-05-17T10:49:19;96702.02;;;16.06;38.81
74334;BME280;62753;40.394;-80.022;2023-05-17T10:51:45;96705.78;;;15.95;39.65
74334;BME280;62753;40.394;-80.022;2023-05-17T10:54:10;96709.76;;;15.80;39.90
74334;BME280;62753;40.394;-80.022;2023-05-17T10:56:38;96714.34;;;15.27;40.55
74334;BME280;62753;40.394;-80.022;2023-05-17T10:59:13;96712.22;;;15.59;39.67
74334;BME280;62753;40.394;-80.022;2023-05-17T11:03:54;96727.59;;;15.97;39.08
74334;BME280;62753;40.394;-80.022;2023-05-17T11:06:17;96733.93;;;15.96;38.65
74334;BME280;62753;40.394;-80.022;2023-05-17T11:08:43;96736.16;;;16.28;38.56
74334;BME280;62753;40.394;-80.022;2023-05-17T11:11:08;96735.46;;;16.52;38.38
74334;BME280;62753;40.394;-80.022;2023-05-17T11:13:33;96736.17;;;16.34;38.34
74334;BME280;62753;40.394;-80.022;2023-05-17T11:16:05;96741.33;;;16.09;38.90
74334;BME280;62753;40.394;-80.022;2023-05-17T11:18:24;96744.38;;;16.05;39.12
74334;BME280;62753;40.394;-80.022;2023-05-17T11:23:16;96758.76;;;15.93;39.04
74334;BME280;62753;40.394;-80.022;2023-05-17T11:25:40;96766.25;;;16.12;39.05
74334;BME280;62753;40.394;-80.022;2023-05-17T11:28:07;96775.74;;;15.94;39.95
74334;BME280;62753;40.394;-80.022;2023-05-17T11:30:31;96777.98;;;15.71;40.12
74334;BME280;62753;40.394;-80.022;2023-05-17T11:32:58;96780.89;;;14.81;41.51
74334;BME280;62753;40.394;-80.022;2023-05-17T11:35:25;96781.65;;;15.05;41.69
74334;BME280;62753;40.394;-80.022;2023-05-17T11:37:51;96788.89;;;15.48;40.59
74334;BME280;62753;40.394;-80.022;2023-05-17T11:40:12;96791.58;;;15.42;40.39
74334;BME280;62753;40.394;-80.022;2023-05-17T11:42:38;96795.31;;;15.65;39.37
74334;BME280;62753;40.394;-80.022;2023-05-17T11:45:04;96802.59;;;15.53;40.20
74334;BME280;62753;40.394;-80.022;2023-05-17T11:47:28;96799.77;;;16.04;39.27
74334;BME280;62753;40.394;-80.022;2023-05-17T11:49:55;96803.60;;;16.77;38.52
74334;BME280;62753;40.394;-80.022;2023-05-17T11:52:19;96807.87;;;16.78;37.97
74334;BME280;62753;40.394;-80.022;2023-05-17T11:54:44;96811.02;;;16.49;37.52
74334;BME280;62753;40.394;-80.022;2023-05-17T11:57:10;96815.53;;;16.57;37.58
74334;BME280;62753;40.394;-80.022;2023-05-17T11:59:37;96820.14;;;16.55;37.22
74334;BME280;62753;40.394;-80.022;2023-05-17T12:02:00;96822.39;;;15.91;39.01
74334;BME280;62753;40.394;-80.022;2023-05-17T12:04:26;96820.08;;;16.47;37.80
74334;BME280;62753;40.394;-80.022;2023-05-17T12:06:51;96823.12;;;16.18;37.90
74334;BME280;62753;40.394;-80.022;2023-05-17T12:09:16;96832.17;;;15.42;39.70
74334;BME280;62753;40.394;-80.022;2023-05-17T12:11:42;96833.08;;;15.85;38.50
74334;BME280;62753;40.394;-80.022;2023-05-17T12:14:07;96842.22;;;15.87;38.97
74334;BME280;62753;40.394;-80.022;2023-05-17T12:16:33;96844.80;;;15.77;39.17
74334;BME280;62753;40.394;-80.022;2023-05-17T12:18:58;96847.22;;;16.29;38.00
74334;BME280;62753;40.394;-80.022;2023-05-17T12:21:23;96851.30;;;16.07;37.87
74334;BME280;62753;40.394;-80.022;2023-05-17T12:23:51;96852.84;;;16.25;37.55
74334;BME280;62753;40.394;-80.022;2023-05-17T12:26:15;96856.26;;;16.11;37.78
74334;BME280;62753;40.394;-80.022;2023-05-17T12:28:41;96859.82;;;15.95;37.74
74334;BME280;62753;40.394;-80.022;2023-05-17T12:31:07;96862.39;;;15.95;37.85
74334;BME280;62753;40.394;-80.022;2023-05-17T12:33:32;96865.46;;;16.17;37.79